Map

Track Data

SID SEASON NUMBER BASIN SUBBASIN NAME ISO_TIME NATURE LAT LON WMO_WIND WMO_PRES WMO_AGENCY TRACK_TYPE DIST2LAND LANDFALL IFLAG USA_AGENCY USA_ATCF_ID USA_LAT USA_LON USA_RECORD USA_STATUS USA_WIND USA_PRES USA_SSHS USA_R34_NE USA_R34_SE USA_R34_SW USA_R34_NW USA_R50_NE USA_R50_SE USA_R50_SW USA_R50_NW USA_R64_NE USA_R64_SE USA_R64_SW USA_R64_NW USA_POCI USA_ROCI USA_RMW USA_EYE TOKYO_LAT TOKYO_LON TOKYO_GRADE TOKYO_WIND TOKYO_PRES TOKYO_R50_DIR TOKYO_R50_LONG TOKYO_R50_SHORT TOKYO_R30_DIR TOKYO_R30_LONG TOKYO_R30_SHORT TOKYO_LAND CMA_LAT CMA_LON CMA_CAT CMA_WIND CMA_PRES HKO_LAT HKO_LON HKO_CAT HKO_WIND HKO_PRES NEWDELHI_LAT NEWDELHI_LON NEWDELHI_GRADE NEWDELHI_WIND NEWDELHI_PRES NEWDELHI_CI NEWDELHI_DP NEWDELHI_POCI REUNION_LAT REUNION_LON REUNION_TYPE REUNION_WIND REUNION_PRES REUNION_TNUM REUNION_CI REUNION_RMW REUNION_R34_NE REUNION_R34_SE REUNION_R34_SW REUNION_R34_NW REUNION_R50_NE REUNION_R50_SE REUNION_R50_SW REUNION_R50_NW REUNION_R64_NE REUNION_R64_SE REUNION_R64_SW REUNION_R64_NW BOM_LAT BOM_LON BOM_TYPE BOM_WIND BOM_PRES BOM_TNUM BOM_CI BOM_RMW BOM_R34_NE BOM_R34_SE BOM_R34_SW BOM_R34_NW BOM_R50_NE BOM_R50_SE BOM_R50_SW BOM_R50_NW BOM_R64_NE BOM_R64_SE BOM_R64_SW BOM_R64_NW BOM_ROCI BOM_POCI BOM_EYE BOM_POS_METHOD BOM_PRES_METHOD NADI_LAT NADI_LON NADI_CAT NADI_WIND NADI_PRES WELLINGTON_LAT WELLINGTON_LON WELLINGTON_WIND WELLINGTON_PRES DS824_LAT DS824_LON DS824_STAGE DS824_WIND DS824_PRES TD9636_LAT TD9636_LON TD9636_STAGE TD9636_WIND TD9636_PRES TD9635_LAT TD9635_LON TD9635_WIND TD9635_PRES TD9635_ROCI NEUMANN_LAT NEUMANN_LON NEUMANN_CLASS NEUMANN_WIND NEUMANN_PRES MLC_LAT MLC_LON MLC_CLASS MLC_WIND MLC_PRES USA_GUST BOM_GUST BOM_GUST_PER REUNION_GUST REUNION_GUST_PER USA_SEAHGT USA_SEARAD_NE USA_SEARAD_SE USA_SEARAD_SW USA_SEARAD_NW STORM_SPEED STORM_DIR
1871278N11329 1871 27 NA NA NOT_NAMED 1871-10-05 06:00:00 TS 10.5000 -31.0000 spur-merge 1538 1538 _____________O -1 10.5000 -31.0000 TS 35 22 291
1871278N11329 1871 27 NA NA NOT_NAMED 1871-10-05 09:00:00 TS 10.9006 -32.0370 spur-merge 1629 1629 _____________P -1 10.9006 -32.0370 TS 35 22 291
1871278N11329 1871 27 NA NA NOT_NAMED 1871-10-05 12:00:00 TS 11.3000 -33.1000 spur-merge 1732 1732 _____________O -1 11.3000 -33.1000 TS 35 23 291
1871278N11329 1871 27 NA NA NOT_NAMED 1871-10-05 15:00:00 TS 11.6997 -34.2002 spur-merge 1749 1744 _____________P -1 11.6997 -34.2002 TS 35 23 290
1871278N11329 1871 27 NA NA NOT_NAMED 1871-10-05 18:00:00 TS 12.1000 -35.3000 spur-merge 1752 1749 _____________O -1 12.1000 -35.3000 TS 35 23 291
1871278N11329 1871 27 NA NA NOT_NAMED 1871-10-05 21:00:00 TS 12.4994 -36.3504 spur-merge 1765 1763 _____________P -1 12.4994 -36.3504 TS 37 22 291
1871278N11329 1871 27 NA NA NOT_NAMED 1871-10-06 00:00:00 TS 12.9000 -37.4000 spur-merge 1789 1739 _____________O -1 12.9000 -37.4000 TS 40 22 291
1871278N11329 1871 27 NA NA NOT_NAMED 1871-10-06 03:00:00 TS 13.2997 -38.5003 spur-merge 1730 1669 _____________P -1 13.2997 -38.5003 TS 40 23 290
1871278N11329 1871 27 NA NA NOT_NAMED 1871-10-06 06:00:00 TS 13.7000 -39.6000 spur-merge 1660 1607 _____________O -1 13.7000 -39.6000 TS 40 22 291
1871278N11329 1871 27 NA NA NOT_NAMED 1871-10-06 09:00:00 TS 14.0993 -40.6504 spur-merge 1599 1560 _____________P -1 14.0993 -40.6504 TS 40 22 291
1871278N11329 1871 27 NA NA NOT_NAMED 1871-10-06 12:00:00 TS 14.5000 -41.7000 spur-merge 1553 1513 _____________O -1 14.5000 -41.7000 TS 40 22 291
1871278N11329 1871 27 NA NA NOT_NAMED 1871-10-06 15:00:00 TS 14.8997 -42.8003 spur-merge 1508 1477 _____________P -1 14.8997 -42.8003 TS 42 23 291
1871278N11329 1871 27 NA NA NOT_NAMED 1871-10-06 18:00:00 TS 15.3000 -43.9000 spur-merge 1474 1443 _____________O -1 15.3000 -43.9000 TS 45 22 291
1871278N11329 1871 27 NA NA NOT_NAMED 1871-10-06 21:00:00 TS 15.6993 -44.9505 spur-merge 1439 1419 _____________P -1 15.6993 -44.9505 TS 45 22 292
1871278N11329 1871 27 NA NA NOT_NAMED 1871-10-07 00:00:00 TS 16.1000 -46.0000 spur-merge 1417 1399 _____________O -1 16.1000 -46.0000 TS 45 22 291
1871278N11329 1871 27 NA NA NOT_NAMED 1871-10-07 03:00:00 TS 16.4997 -47.1004 spur-merge 1399 1388 _____________P -1 16.4997 -47.1004 TS 45 23 291
1871278N11329 1871 27 NA NA NOT_NAMED 1871-10-07 06:00:00 TS 16.9000 -48.2000 spur-merge 1392 1380 _____________O -1 16.9000 -48.2000 TS 45 22 291
1871278N11329 1871 27 NA NA NOT_NAMED 1871-10-07 09:00:00 TS 17.2993 -49.2580 spur-merge 1383 1379 _____________P -1 17.2993 -49.2580 TS 47 22 292
1871278N11329 1871 27 NA NA NOT_NAMED 1871-10-07 12:00:00 TS 17.7000 -50.3000 spur-merge 1387 1332 _____________O -1 17.7000 -50.3000 TS 50 21 292
1871278N11329 1871 27 NA NA NOT_NAMED 1871-10-07 15:00:00 TS 18.0993 -51.3430 spur-merge 1332 1279 _____________P -1 18.0993 -51.3430 TS 50 22 292
1871278N11329 1871 27 NA NA NOT_NAMED 1871-10-07 18:00:00 TS 18.5000 -52.4000 spur-merge 1271 1221 _____________O -1 18.5000 -52.4000 TS 50 22 291
1871278N11329 1871 27 NA NA NOT_NAMED 1871-10-07 21:00:00 TS 18.8999 -53.5153 spur-merge 1221 1172 _____________P -1 18.8999 -53.5153 TS 52 22 291
1871278N11329 1871 27 NA NA NOT_NAMED 1871-10-08 00:00:00 TS 19.3000 -54.6000 spur-merge 1161 1071 _____________O -1 19.3000 -54.6000 TS 55 21 293
1871278N11329 1871 27 NA NA NOT_NAMED 1871-10-08 03:00:00 TS 19.6988 -55.5508 spur-merge 1060 984 _____________P -1 19.6988 -55.5508 TS 57 20 294
1871278N11329 1871 27 NA NA NOT_NAMED 1871-10-08 06:00:00 TS 20.1000 -56.5000 spur-merge 973 878 _____________O -1 20.1000 -56.5000 TS 60 21 293
1871278N11329 1871 27 NA NA NOT_NAMED 1871-10-08 09:00:00 TS 20.4922 -57.5781 spur-merge 870 784 _____________P -1 20.4922 -57.5781 TS 65 22 291
1871278N11329 1871 27 NA NA NOT_NAMED 1871-10-08 12:00:00 TS 20.9000 -58.7000 spur-merge 774 687 _____________O -1 20.9000 -58.7000 HU 70 23 292
1871278N11329 1871 27 NA NA NOT_NAMED 1871-10-08 15:00:00 TS 21.3426 -59.8450 spur-merge 687 622 _____________P -1 21.3426 -59.8450 HU 75 22 294
1871278N11329 1871 27 NA NA NOT_NAMED 1871-10-08 18:00:00 TS 21.8000 -60.9000 spur-merge 620 587 _____________O -1 21.8000 -60.9000 HU 80 20 297
1871278N11329 1871 27 NA NA NOT_NAMED 1871-10-08 21:00:00 TS 22.2491 -61.7607 spur-merge 580 573 _____________P -1 22.2491 -61.7607 HU 85 17 301
1871278N11329 1871 27 NA NA NOT_NAMED 1871-10-09 00:00:00 TS 22.7000 -62.5000 spur-merge 579 573 _____________O -1 22.7000 -62.5000 HU 90 16 304
1871278N11329 1871 27 NA NA NOT_NAMED 1871-10-09 03:00:00 TS 23.1495 -63.2156 spur-merge 581 581 _____________P -1 23.1495 -63.2156 HU 95 16 305
1871278N11329 1871 27 NA NA NOT_NAMED 1871-10-09 06:00:00 NR 23.6000 -63.9000 spur-merge 607 604 _____________O -1 23.6000 -63.9000 MH 100 16 305
1871278N11329 1871 27 NA NA NOT_NAMED 1871-10-09 09:00:00 NR 24.0497 -64.6005 spur-merge 634 634 _____________P -1 24.0497 -64.6005 MH 105 16 305
1871278N11329 1871 27 NA NA NOT_NAMED 1871-10-09 12:00:00 NR 24.5000 -65.3000 spur-merge 682 682 _____________O -1 24.5000 -65.3000 MH 110 16 305
1871278N11329 1871 27 NA NA NOT_NAMED 1871-10-09 15:00:00 NR 24.9499 -66.0153 spur-merge 712 712 _____________P -1 24.9499 -66.0153 MH 115 16 305
1871278N11329 1871 27 NA NA NOT_NAMED 1871-10-09 18:00:00 NR 25.4000 -66.7000 spur-merge 731 731 _____________O -1 25.4000 -66.7000 MH 120 15 307
1871278N11329 1871 27 NA NA NOT_NAMED 1871-10-09 21:00:00 NR 25.8574 -67.3452 spur-merge 756 752 _____________P -1 25.8574 -67.3452 MH 120 14 310
1871278N11329 1871 27 NA NA NOT_NAMED 1871-10-10 00:00:00 NR 26.3000 -67.9000 spur-merge 770 763 _____________O -1 26.3000 -67.9000 MH 120 930 13 311
1871278N11329 1871 27 NA NA NOT_NAMED 1871-10-10 03:00:00 NR 26.6999 -68.4345 spur-merge 771 765 _____________P -1 26.6999 -68.4345 MH 117 11 318
1871278N11329 1871 27 NA NA NOT_NAMED 1871-10-10 06:00:00 NR 27.1000 -68.7000 spur-merge 790 790 _____________O -1 27.1000 -68.7000 MH 115 9 0
1871278N11329 1871 27 NA NA NOT_NAMED 1871-10-10 09:00:00 NR 27.5503 -68.4245 spur-merge 853 853 _____________P -1 27.5503 -68.4245 MH 112 10 31
1871278N11329 1871 27 NA NA NOT_NAMED 1871-10-10 12:00:00 NR 28.0000 -68.1000 spur-merge 906 906 _____________O -1 28.0000 -68.1000 MH 110 9 9
1871278N11329 1871 27 NA NA NOT_NAMED 1871-10-10 15:00:00 NR 28.4226 -68.2741 spur-merge 933 933 _____________P -1 28.4226 -68.2741 MH 107 9 331
1871278N11329 1871 27 NA NA NOT_NAMED 1871-10-10 18:00:00 NR 28.8000 -68.6000 spur-merge 957 956 _____________O -1 28.8000 -68.6000 MH 105 8 325
1871278N11329 1871 27 NA NA NOT_NAMED 1871-10-10 21:00:00 NR 29.0999 -68.8079 spur-merge 956 919 _____________P -1 29.0999 -68.8079 MH 102 7 330
1871278N11329 1871 27 NA NA NOT_NAMED 1871-10-11 00:00:00 NR 29.4000 -69.0000 spur-merge 919 875 _____________O -1 29.4000 -69.0000 MH 100 8 334
1871278N11329 1871 27 NA NA NOT_NAMED 1871-10-11 03:00:00 NR 29.7849 -69.1927 spur-merge 875 831 _____________P -1 29.7751 -69.1970 MH 97 9 337
1871278N11329 1871 27 NA NA NOT_NAMED 1871-10-11 06:00:00 TS 30.2000 -69.4000 spur-merge 831 787 _____________O -1 30.2000 -69.4000 HU 95 9 334
1871278N11329 1871 27 NA NA NOT_NAMED 1871-10-11 09:00:00 TS 30.5925 -69.6501 spur-merge 780 ______________ -1 HU 9 331

About IBTrACS Database

This database is a web-friendly format of International Best Track Archive for Climate Stewardship (IBTrACS), a global best track data archive curated by NOAA dating back to 1842.

Updated: 2021-10-27